Gwendolyn Grace — WDA9775 — position and weather

sailwx.info

Track history (hours):
 
Tides and Currents Weather Stations Pressure Air Temp Water Temp Dewpoint Dewpoint Depression Visibility Wind Speed Wind Dir Waves Ship Positions

Gwendolyn Grace

Owner: MARINE EXPRESS, ALAMEDA, CA. More information available from US FCC via Universal Licensing System and Coast Guard Vessel Documentation Center.

Last reported at 2017-Dec-08 22:52 UTC. Time now 2017-Dec-13 20:50 UTC.
Position N 37°47' W 122°17'.

Length 18 m; draft 6 m.

Type: Pilot. MMSI: 366868850.

Date/timePositionNaut miles runAvg speedWind from/ knotsBaromVisibWave heightAir tempDewpointWater temp
2017-Dec-08 22:52N 37°47' W 122°17'1 1.6
2017-Dec-08 22:30N 37°48' W 122°17'2 3.1
2017-Dec-08 22:00N 37°47' W 122°15'0 0.1
2017-Dec-08 21:31N 37°47' W 122°15'1 1.8
2017-Dec-08 21:00N 37°47' W 122°16'1 0.1
2017-Dec-08 00:37N 37°47' W 122°17'0 0.2
2017-Dec-08 00:30N 37°47' W 122°17'0 0.0
2017-Dec-08 00:00N 37°47' W 122°17'2 4.4
2017-Dec-07 23:30N 37°48' W 122°20'2 4.9
2017-Dec-07 23:00N 37°45' W 122°20'0 0.2
2017-Dec-07 22:30N 37°45' W 122°20'0 0.1
2017-Dec-07 22:00N 37°45' W 122°20'0 0.1
2017-Dec-07 21:30N 37°45' W 122°20'0 0.0
2017-Dec-07 21:00N 37°45' W 122°20'0 0.0
2017-Dec-07 20:30N 37°45' W 122°20'0 0.0
2017-Dec-07 20:00N 37°45' W 122°20'0 0.0
2017-Dec-07 19:30N 37°45' W 122°20'0 0.0
2017-Dec-07 18:52N 37°45' W 122°20'0 0.0
2017-Dec-07 18:30N 37°45' W 122°20'0 0.6
2017-Dec-07 18:00N 37°46' W 122°20'0 0.6
2017-Dec-07 17:30N 37°46' W 122°20'0 0.9
2017-Dec-07 17:00N 37°46' W 122°20'2 4.9
2017-Dec-07 16:30N 37°48' W 122°18'1 1.1
2017-Dec-07 16:00N 37°47' W 122°17'  
2017-Dec-02 19:08N 37°47' W 122°17'0 0.4
2017-Dec-02 19:01N 37°47' W 122°17'0 0.1
2017-Dec-02 18:30N 37°48' W 122°17'0 0.2
2017-Dec-02 18:01N 37°47' W 122°17'0 0.3
2017-Dec-02 17:31N 37°47' W 122°17'0 0.0
2017-Dec-02 02:31N 37°47' W 122°17'0 0.0
2017-Dec-02 02:31N 37°47' W 122°17'0 0.1
2017-Dec-02 02:01N 37°47' W 122°17'  
2017-Nov-29 15:39N 37°47' W 122°17'0 0.2
2017-Nov-29 15:30N 37°47' W 122°17'0 0.0
2017-Nov-29 02:49N 37°47' W 122°17'1 3.7
2017-Nov-29 02:30N 37°48' W 122°19'3 5.4
2017-Nov-29 02:00N 37°46' W 122°21'0 0.1
2017-Nov-29 01:30N 37°46' W 122°21'0 0.0
2017-Nov-29 01:00N 37°46' W 122°21'0 0.0
2017-Nov-29 00:30N 37°46' W 122°21'3 5.3
2017-Nov-29 00:00N 37°48' W 122°19'1 2.3
2017-Nov-28 23:30N 37°47' W 122°17'0 0.0
2017-Nov-28 23:01N 37°47' W 122°17'  
Track history (hours):
 
Tides and Currents Weather Stations Pressure Air Temp Water Temp Dewpoint Dewpoint Depression Visibility Wind Speed Wind Dir Waves Ship Positions

Gwendolyn Grace

Owner: MARINE EXPRESS, ALAMEDA, CA. More information available from US FCC via Universal Licensing System and Coast Guard Vessel Documentation Center.

Last reported at 2017-Dec-08 22:52 UTC. Time now 2017-Dec-13 20:50 UTC.
Position N 37°47' W 122°17'.

Length 18 m; draft 6 m.

Type: Pilot. MMSI: 366868850.

Date/timePositionNaut miles runAvg speedWind from/ knotsBaromVisibWave heightAir tempDewpointWater temp
2017-Dec-08 22:52N 37°47' W 122°17'1 1.6
2017-Dec-08 22:30N 37°48' W 122°17'2 3.1
2017-Dec-08 22:00N 37°47' W 122°15'0 0.1
2017-Dec-08 21:31N 37°47' W 122°15'1 1.8
2017-Dec-08 21:00N 37°47' W 122°16'1 0.1
2017-Dec-08 00:37N 37°47' W 122°17'0 0.2
2017-Dec-08 00:30N 37°47' W 122°17'0 0.0
2017-Dec-08 00:00N 37°47' W 122°17'2 4.4
2017-Dec-07 23:30N 37°48' W 122°20'2 4.9
2017-Dec-07 23:00N 37°45' W 122°20'0 0.2
2017-Dec-07 22:30N 37°45' W 122°20'0 0.1
2017-Dec-07 22:00N 37°45' W 122°20'0 0.1
2017-Dec-07 21:30N 37°45' W 122°20'0 0.0
2017-Dec-07 21:00N 37°45' W 122°20'0 0.0
2017-Dec-07 20:30N 37°45' W 122°20'0 0.0
2017-Dec-07 20:00N 37°45' W 122°20'0 0.0
2017-Dec-07 19:30N 37°45' W 122°20'0 0.0
2017-Dec-07 18:52N 37°45' W 122°20'0 0.0
2017-Dec-07 18:30N 37°45' W 122°20'0 0.6
2017-Dec-07 18:00N 37°46' W 122°20'0 0.6
2017-Dec-07 17:30N 37°46' W 122°20'0 0.9
2017-Dec-07 17:00N 37°46' W 122°20'2 4.9
2017-Dec-07 16:30N 37°48' W 122°18'1 1.1
2017-Dec-07 16:00N 37°47' W 122°17'  
2017-Dec-02 19:08N 37°47' W 122°17'0 0.4
2017-Dec-02 19:01N 37°47' W 122°17'0 0.1
2017-Dec-02 18:30N 37°48' W 122°17'0 0.2
2017-Dec-02 18:01N 37°47' W 122°17'0 0.3
2017-Dec-02 17:31N 37°47' W 122°17'0 0.0
2017-Dec-02 02:31N 37°47' W 122°17'0 0.0
2017-Dec-02 02:31N 37°47' W 122°17'0 0.1
2017-Dec-02 02:01N 37°47' W 122°17'  
2017-Nov-29 15:39N 37°47' W 122°17'0 0.2
2017-Nov-29 15:30N 37°47' W 122°17'0 0.0
2017-Nov-29 02:49N 37°47' W 122°17'1 3.7
2017-Nov-29 02:30N 37°48' W 122°19'3 5.4
2017-Nov-29 02:00N 37°46' W 122°21'0 0.1
2017-Nov-29 01:30N 37°46' W 122°21'0 0.0
2017-Nov-29 01:00N 37°46' W 122°21'0 0.0
2017-Nov-29 00:30N 37°46' W 122°21'3 5.3
2017-Nov-29 00:00N 37°48' W 122°19'1 2.3
2017-Nov-28 23:30N 37°47' W 122°17'0 0.0
2017-Nov-28 23:01N 37°47' W 122°17'  

Dump ship's entire track history